createdAt,value
2018-09-02T00:00:43.875Z,7.00
2018-09-02T00:03:48.038Z,5.77
2018-09-02T00:06:52.369Z,8.93
2018-09-02T00:09:56.663Z,8.07
2018-09-02T00:13:00.995Z,8.37
2018-09-02T00:16:05.398Z,6.93
2018-09-02T00:19:09.551Z,6.33
2018-09-02T00:22:13.887Z,10.00
2018-09-02T00:25:18.158Z,6.47
2018-09-02T00:28:22.544Z,6.40
2018-09-02T00:31:26.855Z,8.87
2018-09-02T00:34:31.174Z,8.30
2018-09-02T00:37:35.893Z,7.93
2018-09-02T00:40:40.100Z,6.77
2018-09-02T00:43:44.393Z,7.80
2018-09-02T00:46:48.787Z,7.20
2018-09-02T00:49:53.049Z,7.53
2018-09-02T00:52:58.138Z,7.40
2018-09-02T00:56:02.359Z,6.87
2018-09-02T00:59:06.651Z,9.40
2018-09-02T01:02:10.940Z,7.13
2018-09-02T01:05:15.095Z,7.30
2018-09-02T01:08:19.426Z,7.17
2018-09-02T01:11:23.771Z,5.53
2018-09-02T01:14:27.960Z,7.47
2018-09-02T01:17:32.334Z,6.47
2018-09-02T01:20:36.616Z,10.30
2018-09-02T01:23:40.823Z,6.60
2018-09-02T01:26:45.245Z,7.73
2018-09-02T01:29:49.440Z,6.87
2018-09-02T01:32:53.764Z,6.90
2018-09-02T01:35:58.086Z,8.27
2018-09-02T01:39:02.519Z,7.70
2018-09-02T01:42:06.747Z,8.20
2018-09-02T01:45:11.216Z,10.00
2018-09-02T01:48:15.349Z,8.47
2018-09-02T01:51:19.498Z,9.30
2018-09-02T01:54:23.818Z,9.20
2018-09-02T01:57:28.048Z,9.07
2018-09-02T02:00:32.209Z,8.37
2018-09-02T02:03:36.252Z,7.93
2018-09-02T02:06:40.529Z,7.70
2018-09-02T02:09:44.838Z,8.07
2018-09-02T02:12:49.151Z,8.40
2018-09-02T02:15:53.457Z,7.93
2018-09-02T02:18:57.825Z,6.80
2018-09-02T02:22:02.249Z,8.00
2018-09-02T02:25:06.396Z,8.17
2018-09-02T02:28:10.578Z,7.00
2018-09-02T02:31:14.880Z,8.03
2018-09-02T02:34:19.246Z,6.23
2018-09-02T02:37:23.502Z,7.12
2018-09-02T02:40:27.886Z,7.10
2018-09-02T02:43:32.140Z,7.80
2018-09-02T02:46:36.303Z,6.90
2018-09-02T02:49:40.606Z,7.40
2018-09-02T02:52:50.107Z,8.37
2018-09-02T02:55:54.400Z,8.13
2018-09-02T02:58:58.698Z,7.40
2018-09-02T03:02:03.145Z,8.97
2018-09-02T03:05:07.381Z,7.10
2018-09-02T03:08:11.567Z,7.43
2018-09-02T03:11:15.672Z,8.53
2018-09-02T03:14:20.018Z,8.40
2018-09-02T03:17:24.217Z,7.60
2018-09-02T03:20:28.227Z,7.50
2018-09-02T03:23:32.126Z,9.00
2018-09-02T03:26:36.078Z,7.33
2018-09-02T03:29:40.463Z,7.50
2018-09-02T03:32:44.737Z,7.17
2018-09-02T03:35:48.915Z,8.57
2018-09-02T03:38:52.794Z,7.63
2018-09-02T03:41:56.766Z,8.17
2018-09-02T03:45:01.154Z,8.60
2018-09-02T03:48:05.618Z,8.43
2018-09-02T03:51:09.950Z,9.27
2018-09-02T03:54:14.263Z,7.47
2018-09-02T03:57:18.558Z,8.03
2018-09-02T04:00:23.034Z,8.17
2018-09-02T04:03:27.199Z,7.43
2018-09-02T04:06:31.568Z,7.87
2018-09-02T04:09:35.847Z,9.60
2018-09-02T04:12:40.186Z,8.60
2018-09-02T04:15:45.028Z,9.17
2018-09-02T04:18:49.355Z,9.00
2018-09-02T04:21:54.168Z,7.87
2018-09-02T04:24:58.451Z,8.30
2018-09-02T04:28:02.685Z,8.93
2018-09-02T04:31:06.967Z,8.90
2018-09-02T04:34:11.137Z,10.53
2018-09-02T04:37:15.274Z,10.60
2018-09-02T04:40:19.479Z,7.93
2018-09-02T04:43:23.807Z,14.93
2018-09-02T04:46:28.036Z,10.87
2018-09-02T04:49:32.273Z,10.93
2018-09-02T04:52:36.571Z,9.07
2018-09-02T04:55:40.921Z,8.93
2018-09-02T04:58:45.438Z,9.40
2018-09-02T05:01:49.737Z,9.57
2018-09-02T05:04:53.988Z,10.57
2018-09-02T05:07:58.315Z,10.00
2018-09-02T05:11:02.642Z,8.63
2018-09-02T05:14:07.015Z,8.80
2018-09-02T05:17:11.482Z,8.50
2018-09-02T05:20:15.691Z,10.10
2018-09-02T05:23:20.126Z,10.03
2018-09-02T05:26:24.489Z,9.80
2018-09-02T05:29:28.818Z,8.50
2018-09-02T05:32:32.885Z,8.63
2018-09-02T05:35:36.763Z,10.40
2018-09-02T05:38:40.650Z,9.50
2018-09-02T05:41:44.556Z,11.47
2018-09-02T05:44:48.975Z,9.30
2018-09-02T05:47:53.222Z,12.20
2018-09-02T05:50:57.466Z,11.70
2018-09-02T05:54:01.809Z,9.60
2018-09-02T05:57:06.245Z,12.10
2018-09-02T06:00:10.590Z,12.53
2018-09-02T06:03:14.875Z,13.17
2018-09-02T06:06:19.349Z,9.67
2018-09-02T06:09:23.609Z,10.33
2018-09-02T06:12:27.917Z,10.87
2018-09-02T06:15:32.206Z,12.40
2018-09-02T06:18:37.310Z,12.07
2018-09-02T06:21:41.658Z,11.03
2018-09-02T06:24:45.964Z,11.73
2018-09-02T06:27:50.209Z,11.77
2018-09-02T06:30:54.618Z,9.57
2018-09-02T06:33:58.968Z,11.23
2018-09-02T06:37:03.204Z,13.60
2018-09-02T06:40:07.447Z,10.27
2018-09-02T06:43:11.915Z,10.40
2018-09-02T06:46:16.239Z,10.80
2018-09-02T06:49:20.586Z,9.07
2018-09-02T06:52:25.063Z,9.43
2018-09-02T06:55:29.272Z,8.63
2018-09-02T06:58:33.668Z,8.10
2018-09-02T07:01:37.871Z,8.27
2018-09-02T07:04:42.177Z,8.00
2018-09-02T07:07:46.305Z,9.07
2018-09-02T07:10:50.667Z,8.57
2018-09-02T07:13:55.150Z,8.80
2018-09-02T07:16:59.468Z,7.20
2018-09-02T07:20:03.895Z,6.67
2018-09-02T07:23:08.355Z,8.23
2018-09-02T07:26:12.814Z,6.60
2018-09-02T07:29:23.726Z,7.53
2018-09-02T07:32:27.917Z,8.90
2018-09-02T07:35:32.425Z,12.00
2018-09-02T07:38:36.940Z,8.50
2018-09-02T07:41:41.224Z,9.30
2018-09-02T07:44:45.799Z,8.27
2018-09-02T07:47:50.164Z,7.63
2018-09-02T07:50:54.586Z,7.40
2018-09-02T07:53:58.773Z,8.13
2018-09-02T07:57:03.232Z,8.03
2018-09-02T08:00:08.707Z,10.40
2018-09-02T08:03:13.162Z,7.37
2018-09-02T08:06:17.652Z,10.80
2018-09-02T08:09:21.836Z,6.50
2018-09-02T08:12:26.366Z,7.10
2018-09-02T08:15:30.899Z,6.67
2018-09-02T08:18:35.309Z,6.13
2018-09-02T08:21:39.542Z,6.83
2018-09-02T08:24:43.986Z,6.13
2018-09-02T08:27:49.287Z,6.63
2018-09-02T08:30:53.615Z,6.27
2018-09-02T08:33:57.904Z,6.73
2018-09-02T08:37:02.400Z,5.50
2018-09-02T08:40:06.930Z,5.43
2018-09-02T08:43:11.183Z,5.10
2018-09-02T08:46:15.899Z,6.90
2018-09-02T08:49:20.252Z,6.17
2018-09-02T08:52:24.523Z,6.63
2018-09-02T08:55:28.838Z,6.80
2018-09-02T08:58:33.179Z,6.37
2018-09-02T09:01:37.539Z,6.50
2018-09-02T09:04:42.085Z,6.20
2018-09-02T09:07:46.753Z,6.27
2018-09-02T09:10:51.341Z,5.80
2018-09-02T09:13:55.899Z,5.67
2018-09-02T09:17:00.435Z,7.30
2018-09-02T09:20:04.827Z,5.07
2018-09-02T09:23:09.038Z,6.60
2018-09-02T09:26:20.364Z,6.70
2018-09-02T09:29:24.842Z,6.50
2018-09-02T09:32:29.283Z,7.80
2018-09-02T09:35:33.714Z,6.77
2018-09-02T09:38:45.495Z,5.93
2018-09-02T09:41:49.869Z,5.27
2018-09-02T09:44:54.167Z,5.53
2018-09-02T09:47:58.673Z,6.93
2018-09-02T09:51:02.999Z,5.27
2018-09-02T09:54:07.297Z,5.40
2018-09-02T09:57:11.767Z,6.23
2018-09-02T10:00:20.078Z,6.40
2018-09-02T10:03:24.355Z,6.47
2018-09-02T10:06:28.610Z,5.60
2018-09-02T10:09:32.847Z,6.30
2018-09-02T10:12:37.194Z,6.83
2018-09-02T10:15:41.462Z,5.60
2018-09-02T10:24:14.776Z,6.17
2018-09-02T10:27:19.052Z,5.70
2018-09-02T10:30:23.388Z,6.00
2018-09-02T10:33:27.935Z,6.30
2018-09-02T10:36:32.370Z,5.47
2018-09-02T10:39:36.653Z,6.33
2018-09-02T10:42:40.971Z,6.33
2018-09-02T10:45:45.417Z,7.30
2018-09-02T10:48:49.989Z,7.50
2018-09-02T10:51:54.239Z,7.07
2018-09-02T10:54:59.009Z,7.57
2018-09-02T10:58:03.403Z,7.17
2018-09-02T11:01:07.736Z,8.43
2018-09-02T11:04:12.039Z,7.00
2018-09-02T11:07:16.287Z,6.73
2018-09-02T11:10:20.553Z,6.10
2018-09-02T11:13:24.910Z,6.17
2018-09-02T11:16:29.178Z,5.20
2018-09-02T11:19:33.678Z,7.07
2018-09-02T11:22:38.191Z,6.90
2018-09-02T11:25:42.567Z,6.83
2018-09-02T11:28:47.059Z,6.83
2018-09-02T11:31:51.175Z,6.47
2018-09-02T11:34:55.332Z,7.23
2018-09-02T11:37:59.782Z,7.40
2018-09-02T11:41:04.213Z,7.70
2018-09-02T11:44:08.534Z,6.83
2018-09-02T11:47:12.878Z,7.90
2018-09-02T11:50:17.087Z,7.33
2018-09-02T11:53:21.174Z,5.67
2018-09-02T11:56:25.516Z,7.60
2018-09-02T11:59:29.690Z,7.93
2018-09-02T12:02:34.001Z,7.47
2018-09-02T12:05:38.517Z,7.20
2018-09-02T12:08:42.882Z,7.50
2018-09-02T12:11:47.493Z,8.23
2018-09-02T12:14:52.148Z,7.47
2018-09-02T12:17:56.162Z,6.80
2018-09-02T12:21:00.439Z,5.57
2018-09-02T12:24:04.681Z,7.23
2018-09-02T12:27:09.236Z,7.17
2018-09-02T12:30:14.056Z,6.70
2018-09-02T12:33:19.124Z,7.33
2018-09-02T12:36:23.411Z,7.33
2018-09-02T12:39:28.106Z,6.97
2018-09-02T12:42:32.467Z,7.57
2018-09-02T12:45:36.907Z,6.27
2018-09-02T12:48:41.129Z,6.57
2018-09-02T12:51:45.449Z,6.30
2018-09-02T12:54:50.256Z,6.83
2018-09-02T12:57:54.499Z,6.93
2018-09-02T13:00:58.967Z,6.87
2018-09-02T13:04:03.304Z,7.30
2018-09-02T13:07:07.599Z,7.03
2018-09-02T13:10:11.924Z,5.83
2018-09-02T13:13:16.285Z,6.20
2018-09-02T13:16:20.782Z,7.70
2018-09-02T13:19:25.362Z,7.17
2018-09-02T13:22:29.940Z,7.00
2018-09-02T13:25:34.358Z,5.90
2018-09-02T13:28:38.663Z,6.33
2018-09-02T13:31:42.925Z,7.27
2018-09-02T13:34:47.233Z,6.47
2018-09-02T13:37:51.474Z,5.60
2018-09-02T13:40:55.951Z,5.93
2018-09-02T13:44:00.374Z,6.60
2018-09-02T13:47:04.896Z,12.17
2018-09-02T13:50:10.067Z,8.07
2018-09-02T13:53:14.428Z,6.20
2018-09-02T13:56:18.822Z,6.53
2018-09-02T13:59:23.219Z,7.00
2018-09-02T14:02:27.637Z,8.10
2018-09-02T14:05:38.262Z,9.57
2018-09-02T14:08:42.434Z,6.93
2018-09-02T14:11:46.539Z,6.77
2018-09-02T14:14:51.173Z,7.03
2018-09-02T14:17:55.612Z,6.90
2018-09-02T14:20:59.841Z,6.57
2018-09-02T14:24:04.210Z,8.90
2018-09-02T14:27:08.643Z,6.70
2018-09-02T14:30:12.901Z,6.50
2018-09-02T14:33:17.011Z,6.83
2018-09-02T14:36:21.227Z,9.07
2018-09-02T14:39:25.479Z,6.70
2018-09-02T14:42:29.653Z,5.90
2018-09-02T14:45:33.716Z,7.20
2018-09-02T14:48:38.243Z,5.90
2018-09-02T14:51:42.514Z,6.47
2018-09-02T14:54:46.880Z,6.80
2018-09-02T14:57:51.434Z,5.67
2018-09-02T15:00:55.640Z,6.07
2018-09-02T15:04:00.012Z,6.67
2018-09-02T15:07:04.459Z,5.83
2018-09-02T15:10:08.904Z,5.63
2018-09-02T15:13:13.140Z,7.30
2018-09-02T15:16:17.427Z,6.30
2018-09-02T15:19:21.645Z,6.67
2018-09-02T15:22:26.015Z,6.83
2018-09-02T15:25:30.394Z,6.40
2018-09-02T15:28:34.765Z,6.00
2018-09-02T15:31:39.134Z,6.47
2018-09-02T15:34:43.438Z,6.40
2018-09-02T15:37:47.784Z,9.10
2018-09-02T15:40:52.728Z,7.23
2018-09-02T15:43:57.198Z,6.83
2018-09-02T15:47:01.553Z,7.67
2018-09-02T15:50:06.438Z,7.37
2018-09-02T15:53:10.643Z,7.80
2018-09-02T15:56:14.857Z,7.40
2018-09-02T15:59:19.132Z,6.93
2018-09-02T16:02:23.515Z,7.60
2018-09-02T16:05:27.850Z,7.40
2018-09-02T16:08:32.015Z,7.27
2018-09-02T16:11:36.549Z,8.47
2018-09-02T16:14:40.997Z,7.67
2018-09-02T16:17:45.515Z,7.90
2018-09-02T16:20:49.782Z,7.97
2018-09-02T16:23:54.217Z,8.10
2018-09-02T16:26:58.817Z,7.20
2018-09-02T16:30:03.098Z,7.60
2018-09-02T16:33:13.170Z,7.73
2018-09-02T16:36:17.630Z,8.40
2018-09-02T16:39:24.473Z,6.70
2018-09-02T16:42:29.660Z,7.37
2018-09-02T16:45:34.238Z,7.40
2018-09-02T16:48:38.572Z,7.37
2018-09-02T16:51:42.923Z,7.67
2018-09-02T16:54:49.303Z,7.77
2018-09-02T16:57:54.572Z,8.03
2018-09-02T17:00:58.862Z,9.17
2018-09-02T17:04:05.489Z,8.13
2018-09-02T17:07:09.854Z,7.60
2018-09-02T17:10:14.288Z,7.60
2018-09-02T17:13:18.576Z,9.20
2018-09-02T17:16:22.835Z,8.30
2018-09-02T17:19:29.811Z,8.53
2018-09-02T17:22:34.166Z,8.30
2018-09-02T17:25:38.571Z,8.40
2018-09-02T17:28:42.740Z,7.87
2018-09-02T17:31:46.954Z,9.10
2018-09-02T17:34:51.177Z,8.73
2018-09-02T17:37:55.563Z,8.57
2018-09-02T17:41:00.616Z,7.40
2018-09-02T17:44:05.033Z,8.73
2018-09-02T17:47:09.292Z,9.30
2018-09-02T17:50:13.831Z,8.93
2018-09-02T17:53:18.131Z,8.13
2018-09-02T17:56:22.545Z,8.10
2018-09-02T17:59:26.827Z,10.10
2018-09-02T18:02:31.079Z,8.60
2018-09-02T18:05:35.480Z,8.67
2018-09-02T18:08:40.259Z,7.37
2018-09-02T18:11:44.650Z,8.43
2018-09-02T18:14:49.034Z,9.03
2018-09-02T18:17:53.447Z,8.60
2018-09-02T18:20:57.806Z,9.40
2018-09-02T18:24:02.287Z,9.07
2018-09-02T18:27:07.330Z,8.73
2018-09-02T18:30:11.962Z,9.50
2018-09-02T18:33:16.598Z,9.80
2018-09-02T18:36:21.294Z,10.10
2018-09-02T18:39:25.725Z,8.63
2018-09-02T18:42:30.004Z,8.50
2018-09-02T18:45:34.414Z,8.40
2018-09-02T18:48:39.355Z,9.10
2018-09-02T18:51:43.779Z,8.17
2018-09-02T18:54:48.353Z,7.20
2018-09-02T18:57:53.200Z,8.97
2018-09-02T19:00:57.985Z,9.20
2018-09-02T19:04:02.643Z,8.13
2018-09-02T19:07:07.794Z,9.63
2018-09-02T19:10:12.402Z,8.07
2018-09-02T19:13:17.049Z,8.33
2018-09-02T19:16:21.790Z,8.33
2018-09-02T19:19:26.751Z,7.97
2018-09-02T19:22:31.057Z,7.87
2018-09-02T19:25:35.718Z,9.97
2018-09-02T19:28:40.058Z,9.43
2018-09-02T19:31:44.535Z,8.60
2018-09-02T19:34:49.034Z,9.73
2018-09-02T19:37:53.943Z,10.07
2018-09-02T19:40:58.592Z,8.13
2018-09-02T19:44:03.166Z,9.60
2018-09-02T19:47:07.595Z,9.57
2018-09-02T19:50:11.992Z,8.60
2018-09-02T19:53:16.357Z,8.30
2018-09-02T19:56:20.716Z,8.87
2018-09-02T19:59:24.895Z,8.00
2018-09-02T20:02:29.264Z,8.50
2018-09-02T20:05:33.521Z,8.33
2018-09-02T20:08:37.896Z,8.40
2018-09-02T20:11:42.254Z,7.87
2018-09-02T20:14:46.410Z,12.63
2018-09-02T20:17:50.545Z,8.60
2018-09-02T20:20:54.697Z,8.80
2018-09-02T20:23:59.021Z,8.03
2018-09-02T20:27:03.125Z,8.30
2018-09-02T20:30:07.522Z,8.87
2018-09-02T20:33:11.883Z,8.23
2018-09-02T20:36:16.331Z,9.30
2018-09-02T20:39:20.852Z,9.00
2018-09-02T20:42:25.497Z,8.67
2018-09-02T20:45:29.899Z,7.60
2018-09-02T20:48:34.234Z,8.37
2018-09-02T20:51:39.498Z,8.30
2018-09-02T20:54:43.911Z,7.20
2018-09-02T20:57:48.267Z,9.00
2018-09-02T21:00:52.604Z,10.00
2018-09-02T21:03:57.027Z,9.27
2018-09-02T21:07:01.270Z,11.50
2018-09-02T21:10:06.021Z,14.63
2018-09-02T21:13:10.293Z,19.30
2018-09-02T21:16:21.166Z,19.50
2018-09-02T21:19:25.455Z,20.83
2018-09-02T21:22:29.830Z,17.53
2018-09-02T21:25:34.076Z,16.80
2018-09-02T21:28:38.426Z,15.63
2018-09-02T21:31:42.746Z,21.10
2018-09-02T21:34:47.166Z,16.10
2018-09-02T21:37:51.370Z,15.20
2018-09-02T21:40:55.743Z,17.67
2018-09-02T21:44:00.063Z,16.43
2018-09-02T21:47:04.486Z,16.00
2018-09-02T21:50:09.206Z,15.00
2018-09-02T21:53:13.623Z,15.30
2018-09-02T21:56:17.936Z,17.27
2018-09-02T21:59:22.421Z,16.50
2018-09-02T22:02:26.915Z,14.47
2018-09-02T22:05:31.192Z,16.90
2018-09-02T22:08:35.877Z,16.17
2018-09-02T22:11:40.150Z,15.33
2018-09-02T22:14:44.474Z,15.90
2018-09-02T22:17:48.799Z,17.10
2018-09-02T22:20:53.220Z,15.40
2018-09-02T22:23:57.506Z,13.47
2018-09-02T22:27:01.885Z,16.87
2018-09-02T22:30:06.987Z,16.30
2018-09-02T22:33:11.141Z,16.47
2018-09-02T22:36:15.278Z,15.60
2018-09-02T22:39:19.370Z,13.60
2018-09-02T22:42:23.720Z,16.00
2018-09-02T22:45:28.037Z,16.00
2018-09-02T22:48:32.354Z,12.80
2018-09-02T22:51:36.572Z,15.40
2018-09-02T22:54:41.027Z,13.90
2018-09-02T22:57:45.100Z,12.60
2018-09-02T23:00:49.246Z,14.37
2018-09-02T23:03:53.413Z,11.53
2018-09-02T23:06:57.639Z,10.50
2018-09-02T23:10:01.814Z,10.27
2018-09-02T23:13:05.889Z,10.47
2018-09-02T23:16:10.083Z,9.23
2018-09-02T23:19:14.604Z,13.60
2018-09-02T23:22:18.926Z,9.87
2018-09-02T23:25:23.372Z,9.07
2018-09-02T23:28:27.679Z,9.60
2018-09-02T23:31:32.066Z,8.40
2018-09-02T23:34:36.352Z,8.27
2018-09-02T23:37:40.913Z,11.23
2018-09-02T23:40:45.168Z,9.33
2018-09-02T23:43:49.412Z,8.70
2018-09-02T23:46:53.757Z,9.70
2018-09-02T23:49:58.025Z,8.33
2018-09-02T23:53:02.194Z,9.90
2018-09-02T23:56:06.458Z,9.53
2018-09-02T23:59:10.921Z,14.13
